sensor_id;sensor_type;location;lat;lon;timestamp;P1;durP1;ratioP1;P2;durP2;ratioP2
8819;SDS011;4446;50.876;4.736;2023-02-19T00:01:38;8.27;;;6.25;;
8819;SDS011;4446;50.876;4.736;2023-02-19T00:04:07;8.63;;;6.40;;
8819;SDS011;4446;50.876;4.736;2023-02-19T00:06:37;8.57;;;5.88;;
8819;SDS011;4446;50.876;4.736;2023-02-19T00:09:04;7.57;;;5.35;;
8819;SDS011;4446;50.876;4.736;2023-02-19T00:11:33;7.78;;;5.57;;
8819;SDS011;4446;50.876;4.736;2023-02-19T00:14:00;7.32;;;5.57;;
8819;SDS011;4446;50.876;4.736;2023-02-19T00:16:29;7.65;;;5.70;;
8819;SDS011;4446;50.876;4.736;2023-02-19T00:18:57;8.05;;;5.97;;
8819;SDS011;4446;50.876;4.736;2023-02-19T00:21:26;8.07;;;5.90;;
8819;SDS011;4446;50.876;4.736;2023-02-19T00:23:54;9.10;;;5.78;;
8819;SDS011;4446;50.876;4.736;2023-02-19T00:26:22;6.28;;;5.45;;
8819;SDS011;4446;50.876;4.736;2023-02-19T00:28:51;9.40;;;6.10;;
8819;SDS011;4446;50.876;4.736;2023-02-19T00:31:19;8.35;;;6.20;;
8819;SDS011;4446;50.876;4.736;2023-02-19T00:33:49;9.57;;;6.25;;
8819;SDS011;4446;50.876;4.736;2023-02-19T00:36:17;10.88;;;6.78;;
8819;SDS011;4446;50.876;4.736;2023-02-19T00:38:44;10.85;;;7.63;;
8819;SDS011;4446;50.876;4.736;2023-02-19T00:41:12;9.23;;;7.45;;
8819;SDS011;4446;50.876;4.736;2023-02-19T00:43:47;14.77;;;8.40;;
8819;SDS011;4446;50.876;4.736;2023-02-19T00:46:17;11.73;;;8.23;;
8819;SDS011;4446;50.876;4.736;2023-02-19T00:48:46;14.73;;;8.63;;
8819;SDS011;4446;50.876;4.736;2023-02-19T00:51:13;14.27;;;9.52;;
8819;SDS011;4446;50.876;4.736;2023-02-19T00:53:41;15.07;;;8.90;;
8819;SDS011;4446;50.876;4.736;2023-02-19T00:56:08;13.82;;;8.57;;
8819;SDS011;4446;50.876;4.736;2023-02-19T00:58:35;13.80;;;9.32;;
8819;SDS011;4446;50.876;4.736;2023-02-19T01:01:03;12.98;;;8.68;;
8819;SDS011;4446;50.876;4.736;2023-02-19T01:03:33;14.75;;;8.82;;
8819;SDS011;4446;50.876;4.736;2023-02-19T01:06:00;15.50;;;8.52;;
8819;SDS011;4446;50.876;4.736;2023-02-19T01:08:29;13.63;;;8.75;;
8819;SDS011;4446;50.876;4.736;2023-02-19T01:10:56;12.90;;;8.57;;
8819;SDS011;4446;50.876;4.736;2023-02-19T01:13:23;12.98;;;8.52;;
8819;SDS011;4446;50.876;4.736;2023-02-19T01:15:49;15.43;;;8.98;;
8819;SDS011;4446;50.876;4.736;2023-02-19T01:18:17;13.45;;;8.65;;
8819;SDS011;4446;50.876;4.736;2023-02-19T01:20:45;13.48;;;8.10;;
8819;SDS011;4446;50.876;4.736;2023-02-19T01:23:13;14.32;;;8.25;;
8819;SDS011;4446;50.876;4.736;2023-02-19T01:25:40;15.30;;;7.70;;
8819;SDS011;4446;50.876;4.736;2023-02-19T01:28:07;12.75;;;7.55;;
8819;SDS011;4446;50.876;4.736;2023-02-19T01:30:36;12.82;;;7.95;;
8819;SDS011;4446;50.876;4.736;2023-02-19T01:33:04;16.48;;;8.77;;
8819;SDS011;4446;50.876;4.736;2023-02-19T01:35:32;13.45;;;7.55;;
8819;SDS011;4446;50.876;4.736;2023-02-19T01:38:00;13.38;;;8.23;;
8819;SDS011;4446;50.876;4.736;2023-02-19T01:40:27;10.00;;;7.30;;
8819;SDS011;4446;50.876;4.736;2023-02-19T01:42:54;12.75;;;8.93;;
8819;SDS011;4446;50.876;4.736;2023-02-19T01:45:23;12.35;;;7.72;;
8819;SDS011;4446;50.876;4.736;2023-02-19T01:47:54;15.70;;;7.45;;
8819;SDS011;4446;50.876;4.736;2023-02-19T01:50:27;11.90;;;6.90;;
8819;SDS011;4446;50.876;4.736;2023-02-19T01:52:55;11.55;;;7.40;;
8819;SDS011;4446;50.876;4.736;2023-02-19T01:55:25;12.90;;;6.90;;
8819;SDS011;4446;50.876;4.736;2023-02-19T01:57:52;11.27;;;7.10;;
8819;SDS011;4446;50.876;4.736;2023-02-19T02:00:21;12.05;;;6.78;;
8819;SDS011;4446;50.876;4.736;2023-02-19T02:02:50;13.52;;;7.55;;
8819;SDS011;4446;50.876;4.736;2023-02-19T02:05:22;12.13;;;6.97;;
8819;SDS011;4446;50.876;4.736;2023-02-19T02:07:58;11.05;;;6.80;;
8819;SDS011;4446;50.876;4.736;2023-02-19T02:10:46;13.30;;;6.55;;
8819;SDS011;4446;50.876;4.736;2023-02-19T02:13:15;12.68;;;6.65;;
8819;SDS011;4446;50.876;4.736;2023-02-19T02:15:44;13.02;;;6.63;;
8819;SDS011;4446;50.876;4.736;2023-02-19T02:18:18;14.68;;;6.10;;
8819;SDS011;4446;50.876;4.736;2023-02-19T02:21:05;12.02;;;5.65;;
8819;SDS011;4446;50.876;4.736;2023-02-19T02:23:51;8.43;;;5.35;;
8819;SDS011;4446;50.876;4.736;2023-02-19T02:26:37;10.82;;;5.88;;
8819;SDS011;4446;50.876;4.736;2023-02-19T02:29:24;11.15;;;5.22;;
8819;SDS011;4446;50.876;4.736;2023-02-19T02:32:04;12.93;;;5.30;;
8819;SDS011;4446;50.876;4.736;2023-02-19T02:34:35;11.68;;;5.35;;
8819;SDS011;4446;50.876;4.736;2023-02-19T02:37:06;8.20;;;4.68;;
8819;SDS011;4446;50.876;4.736;2023-02-19T02:39:36;8.98;;;4.40;;
8819;SDS011;4446;50.876;4.736;2023-02-19T02:42:04;8.27;;;4.60;;
8819;SDS011;4446;50.876;4.736;2023-02-19T02:44:48;10.82;;;4.10;;
8819;SDS011;4446;50.876;4.736;2023-02-19T02:47:30;10.18;;;4.15;;
8819;SDS011;4446;50.876;4.736;2023-02-19T02:50:11;7.95;;;4.18;;
8819;SDS011;4446;50.876;4.736;2023-02-19T02:52:41;11.57;;;5.22;;
8819;SDS011;4446;50.876;4.736;2023-02-19T02:55:29;10.27;;;4.07;;
8819;SDS011;4446;50.876;4.736;2023-02-19T02:58:01;8.35;;;4.25;;
8819;SDS011;4446;50.876;4.736;2023-02-19T03:00:28;10.77;;;4.53;;
8819;SDS011;4446;50.876;4.736;2023-02-19T03:03:24;9.35;;;3.92;;
8819;SDS011;4446;50.876;4.736;2023-02-19T03:05:54;9.43;;;3.75;;
8819;SDS011;4446;50.876;4.736;2023-02-19T03:08:24;8.52;;;3.70;;
8819;SDS011;4446;50.876;4.736;2023-02-19T03:10:57;8.10;;;3.30;;
8819;SDS011;4446;50.876;4.736;2023-02-19T03:13:48;9.85;;;3.70;;
8819;SDS011;4446;50.876;4.736;2023-02-19T03:16:36;5.65;;;2.70;;
8819;SDS011;4446;50.876;4.736;2023-02-19T03:19:24;9.43;;;3.20;;
8819;SDS011;4446;50.876;4.736;2023-02-19T03:21:54;7.10;;;3.35;;
8819;SDS011;4446;50.876;4.736;2023-02-19T03:24:28;9.50;;;3.08;;
8819;SDS011;4446;50.876;4.736;2023-02-19T03:27:15;8.02;;;3.08;;
8819;SDS011;4446;50.876;4.736;2023-02-19T03:29:44;8.20;;;3.00;;
8819;SDS011;4446;50.876;4.736;2023-02-19T03:32:14;9.77;;;3.35;;
8819;SDS011;4446;50.876;4.736;2023-02-19T03:34:47;8.57;;;3.25;;
8819;SDS011;4446;50.876;4.736;2023-02-19T03:37:20;9.75;;;3.17;;
8819;SDS011;4446;50.876;4.736;2023-02-19T03:39:52;7.75;;;2.95;;
8819;SDS011;4446;50.876;4.736;2023-02-19T03:42:23;8.85;;;2.88;;
8819;SDS011;4446;50.876;4.736;2023-02-19T03:45:06;7.82;;;2.72;;
8819;SDS011;4446;50.876;4.736;2023-02-19T03:47:49;8.27;;;3.10;;
8819;SDS011;4446;50.876;4.736;2023-02-19T03:50:22;7.28;;;3.17;;
8819;SDS011;4446;50.876;4.736;2023-02-19T03:52:54;11.18;;;3.10;;
8819;SDS011;4446;50.876;4.736;2023-02-19T03:55:29;9.30;;;2.47;;
8819;SDS011;4446;50.876;4.736;2023-02-19T03:58:04;7.80;;;2.55;;
8819;SDS011;4446;50.876;4.736;2023-02-19T04:00:36;7.07;;;2.78;;
8819;SDS011;4446;50.876;4.736;2023-02-19T04:03:10;9.02;;;2.72;;
8819;SDS011;4446;50.876;4.736;2023-02-19T04:05:43;13.05;;;2.65;;
8819;SDS011;4446;50.876;4.736;2023-02-19T04:08:16;8.13;;;2.60;;
8819;SDS011;4446;50.876;4.736;2023-02-19T04:10:45;6.15;;;2.45;;
8819;SDS011;4446;50.876;4.736;2023-02-19T04:13:15;6.47;;;2.45;;
8819;SDS011;4446;50.876;4.736;2023-02-19T04:15:46;9.45;;;2.55;;
8819;SDS011;4446;50.876;4.736;2023-02-19T04:18:16;6.32;;;2.38;;
8819;SDS011;4446;50.876;4.736;2023-02-19T04:20:46;9.43;;;2.50;;
8819;SDS011;4446;50.876;4.736;2023-02-19T04:23:15;9.63;;;2.42;;
8819;SDS011;4446;50.876;4.736;2023-02-19T04:25:45;10.38;;;2.60;;
8819;SDS011;4446;50.876;4.736;2023-02-19T04:28:15;9.27;;;3.15;;
8819;SDS011;4446;50.876;4.736;2023-02-19T04:30:43;9.98;;;2.88;;
8819;SDS011;4446;50.876;4.736;2023-02-19T04:33:11;9.25;;;2.80;;
8819;SDS011;4446;50.876;4.736;2023-02-19T04:35:37;9.40;;;2.53;;
8819;SDS011;4446;50.876;4.736;2023-02-19T04:38:06;9.93;;;2.83;;
8819;SDS011;4446;50.876;4.736;2023-02-19T04:40:33;7.93;;;2.40;;
8819;SDS011;4446;50.876;4.736;2023-02-19T04:43:00;9.55;;;2.47;;
8819;SDS011;4446;50.876;4.736;2023-02-19T04:45:26;9.30;;;2.80;;
8819;SDS011;4446;50.876;4.736;2023-02-19T04:47:53;8.23;;;2.40;;
8819;SDS011;4446;50.876;4.736;2023-02-19T04:50:22;9.15;;;3.00;;
8819;SDS011;4446;50.876;4.736;2023-02-19T04:52:49;5.40;;;2.67;;
8819;SDS011;4446;50.876;4.736;2023-02-19T04:55:17;7.45;;;2.75;;
8819;SDS011;4446;50.876;4.736;2023-02-19T04:57:44;9.00;;;2.80;;
8819;SDS011;4446;50.876;4.736;2023-02-19T05:00:11;8.48;;;2.30;;
8819;SDS011;4446;50.876;4.736;2023-02-19T05:02:39;10.30;;;2.85;;
8819;SDS011;4446;50.876;4.736;2023-02-19T05:05:06;7.15;;;2.78;;
8819;SDS011;4446;50.876;4.736;2023-02-19T05:07:33;10.40;;;2.88;;
8819;SDS011;4446;50.876;4.736;2023-02-19T05:10:00;8.55;;;2.65;;
8819;SDS011;4446;50.876;4.736;2023-02-19T05:12:29;9.60;;;2.55;;
8819;SDS011;4446;50.876;4.736;2023-02-19T05:14:56;12.45;;;2.92;;
8819;SDS011;4446;50.876;4.736;2023-02-19T05:17:23;12.27;;;3.13;;
8819;SDS011;4446;50.876;4.736;2023-02-19T05:19:50;7.50;;;2.70;;
8819;SDS011;4446;50.876;4.736;2023-02-19T05:22:17;10.93;;;2.90;;
8819;SDS011;4446;50.876;4.736;2023-02-19T05:24:44;8.77;;;2.40;;
8819;SDS011;4446;50.876;4.736;2023-02-19T05:27:11;8.30;;;2.50;;
8819;SDS011;4446;50.876;4.736;2023-02-19T05:29:39;9.90;;;2.50;;
8819;SDS011;4446;50.876;4.736;2023-02-19T05:32:06;12.90;;;3.22;;
8819;SDS011;4446;50.876;4.736;2023-02-19T05:34:33;10.10;;;3.33;;
8819;SDS011;4446;50.876;4.736;2023-02-19T05:37:00;8.10;;;2.60;;
8819;SDS011;4446;50.876;4.736;2023-02-19T05:39:27;11.65;;;3.03;;
8819;SDS011;4446;50.876;4.736;2023-02-19T05:41:53;8.52;;;2.63;;
8819;SDS011;4446;50.876;4.736;2023-02-19T05:44:21;8.70;;;2.80;;
8819;SDS011;4446;50.876;4.736;2023-02-19T05:46:49;9.43;;;3.22;;
8819;SDS011;4446;50.876;4.736;2023-02-19T05:49:16;12.10;;;3.10;;
8819;SDS011;4446;50.876;4.736;2023-02-19T05:51:43;10.77;;;2.92;;
8819;SDS011;4446;50.876;4.736;2023-02-19T05:54:10;10.35;;;2.90;;
8819;SDS011;4446;50.876;4.736;2023-02-19T05:56:37;8.60;;;2.47;;
8819;SDS011;4446;50.876;4.736;2023-02-19T05:59:07;11.25;;;2.83;;
8819;SDS011;4446;50.876;4.736;2023-02-19T06:01:40;11.02;;;2.72;;
8819;SDS011;4446;50.876;4.736;2023-02-19T06:04:09;14.15;;;3.03;;
8819;SDS011;4446;50.876;4.736;2023-02-19T06:06:37;8.98;;;2.90;;
8819;SDS011;4446;50.876;4.736;2023-02-19T06:09:04;11.60;;;2.50;;
8819;SDS011;4446;50.876;4.736;2023-02-19T06:11:33;14.50;;;2.97;;
8819;SDS011;4446;50.876;4.736;2023-02-19T06:14:00;10.43;;;2.85;;
8819;SDS011;4446;50.876;4.736;2023-02-19T06:16:27;10.18;;;2.97;;
8819;SDS011;4446;50.876;4.736;2023-02-19T06:18:56;15.70;;;2.80;;
8819;SDS011;4446;50.876;4.736;2023-02-19T06:21:24;9.02;;;2.63;;
8819;SDS011;4446;50.876;4.736;2023-02-19T06:23:51;10.32;;;3.05;;
8819;SDS011;4446;50.876;4.736;2023-02-19T06:26:19;7.50;;;2.47;;
8819;SDS011;4446;50.876;4.736;2023-02-19T06:28:48;9.32;;;3.10;;
8819;SDS011;4446;50.876;4.736;2023-02-19T06:31:16;6.00;;;2.45;;
8819;SDS011;4446;50.876;4.736;2023-02-19T06:33:44;8.48;;;2.60;;
8819;SDS011;4446;50.876;4.736;2023-02-19T06:36:12;9.82;;;2.67;;
8819;SDS011;4446;50.876;4.736;2023-02-19T06:38:42;9.35;;;2.60;;
8819;SDS011;4446;50.876;4.736;2023-02-19T06:41:10;10.18;;;2.35;;
8819;SDS011;4446;50.876;4.736;2023-02-19T06:43:37;11.27;;;2.78;;
8819;SDS011;4446;50.876;4.736;2023-02-19T06:46:05;8.35;;;2.85;;
8819;SDS011;4446;50.876;4.736;2023-02-19T06:48:32;7.82;;;2.22;;
8819;SDS011;4446;50.876;4.736;2023-02-19T06:51:00;7.47;;;2.40;;
8819;SDS011;4446;50.876;4.736;2023-02-19T06:53:27;8.80;;;2.80;;
8819;SDS011;4446;50.876;4.736;2023-02-19T06:55:56;9.45;;;2.85;;
8819;SDS011;4446;50.876;4.736;2023-02-19T06:58:24;9.18;;;2.95;;
8819;SDS011;4446;50.876;4.736;2023-02-19T07:00:51;12.60;;;3.47;;
8819;SDS011;4446;50.876;4.736;2023-02-19T07:03:18;8.57;;;2.28;;
8819;SDS011;4446;50.876;4.736;2023-02-19T07:05:45;9.82;;;2.67;;
8819;SDS011;4446;50.876;4.736;2023-02-19T07:08:12;8.52;;;2.78;;
8819;SDS011;4446;50.876;4.736;2023-02-19T07:10:41;8.35;;;2.60;;
8819;SDS011;4446;50.876;4.736;2023-02-19T07:13:09;9.93;;;2.70;;
8819;SDS011;4446;50.876;4.736;2023-02-19T07:15:36;7.70;;;2.60;;
8819;SDS011;4446;50.876;4.736;2023-02-19T07:18:03;8.35;;;2.80;;
8819;SDS011;4446;50.876;4.736;2023-02-19T07:20:34;10.95;;;3.05;;
8819;SDS011;4446;50.876;4.736;2023-02-19T07:23:01;10.38;;;2.97;;
8819;SDS011;4446;50.876;4.736;2023-02-19T07:25:28;8.15;;;2.47;;
8819;SDS011;4446;50.876;4.736;2023-02-19T07:27:55;11.50;;;3.10;;
8819;SDS011;4446;50.876;4.736;2023-02-19T07:30:23;13.02;;;3.05;;
8819;SDS011;4446;50.876;4.736;2023-02-19T07:32:50;12.80;;;2.83;;
8819;SDS011;4446;50.876;4.736;2023-02-19T07:35:17;10.80;;;3.33;;
8819;SDS011;4446;50.876;4.736;2023-02-19T07:37:44;15.15;;;3.28;;
8819;SDS011;4446;50.876;4.736;2023-02-19T07:40:11;11.57;;;2.60;;
8819;SDS011;4446;50.876;4.736;2023-02-19T07:42:38;11.85;;;2.65;;
8819;SDS011;4446;50.876;4.736;2023-02-19T07:45:05;8.82;;;2.42;;
8819;SDS011;4446;50.876;4.736;2023-02-19T07:47:34;12.10;;;3.22;;
8819;SDS011;4446;50.876;4.736;2023-02-19T07:50:00;8.48;;;2.53;;
8819;SDS011;4446;50.876;4.736;2023-02-19T07:52:27;7.30;;;2.47;;
8819;SDS011;4446;50.876;4.736;2023-02-19T07:54:54;8.88;;;3.05;;
8819;SDS011;4446;50.876;4.736;2023-02-19T07:57:21;11.18;;;2.40;;
8819;SDS011;4446;50.876;4.736;2023-02-19T07:59:48;8.30;;;2.65;;
8819;SDS011;4446;50.876;4.736;2023-02-19T08:02:15;9.85;;;3.42;;
8819;SDS011;4446;50.876;4.736;2023-02-19T08:05:03;8.48;;;3.05;;
8819;SDS011;4446;50.876;4.736;2023-02-19T08:07:31;6.97;;;2.70;;
8819;SDS011;4446;50.876;4.736;2023-02-19T08:09:58;9.35;;;2.83;;
8819;SDS011;4446;50.876;4.736;2023-02-19T08:12:43;8.27;;;2.65;;
8819;SDS011;4446;50.876;4.736;2023-02-19T08:15:27;10.13;;;2.90;;
8819;SDS011;4446;50.876;4.736;2023-02-19T08:17:54;11.73;;;2.95;;
8819;SDS011;4446;50.876;4.736;2023-02-19T08:20:22;7.75;;;2.67;;
8819;SDS011;4446;50.876;4.736;2023-02-19T08:22:49;7.55;;;2.58;;
8819;SDS011;4446;50.876;4.736;2023-02-19T08:25:16;10.07;;;3.00;;
8819;SDS011;4446;50.876;4.736;2023-02-19T08:27:43;9.02;;;2.47;;
8819;SDS011;4446;50.876;4.736;2023-02-19T08:30:10;9.90;;;2.60;;
8819;SDS011;4446;50.876;4.736;2023-02-19T08:32:37;8.88;;;3.03;;
8819;SDS011;4446;50.876;4.736;2023-02-19T08:35:04;6.45;;;3.00;;
8819;SDS011;4446;50.876;4.736;2023-02-19T08:37:33;10.05;;;2.53;;
8819;SDS011;4446;50.876;4.736;2023-02-19T08:40:00;10.32;;;3.00;;
8819;SDS011;4446;50.876;4.736;2023-02-19T08:42:27;9.48;;;3.45;;
8819;SDS011;4446;50.876;4.736;2023-02-19T08:44:54;8.55;;;2.60;;
8819;SDS011;4446;50.876;4.736;2023-02-19T08:47:21;9.02;;;2.90;;
8819;SDS011;4446;50.876;4.736;2023-02-19T08:49:48;7.53;;;2.75;;
8819;SDS011;4446;50.876;4.736;2023-02-19T08:52:15;9.10;;;3.22;;
8819;SDS011;4446;50.876;4.736;2023-02-19T08:54:43;8.63;;;3.00;;
8819;SDS011;4446;50.876;4.736;2023-02-19T08:57:10;9.90;;;3.20;;
8819;SDS011;4446;50.876;4.736;2023-02-19T08:59:37;8.45;;;2.90;;
8819;SDS011;4446;50.876;4.736;2023-02-19T09:02:04;9.05;;;3.08;;
8819;SDS011;4446;50.876;4.736;2023-02-19T09:04:30;7.25;;;2.72;;
8819;SDS011;4446;50.876;4.736;2023-02-19T09:06:57;10.80;;;2.72;;
8819;SDS011;4446;50.876;4.736;2023-02-19T09:09:24;8.30;;;3.10;;
8819;SDS011;4446;50.876;4.736;2023-02-19T09:11:52;10.27;;;3.00;;
8819;SDS011;4446;50.876;4.736;2023-02-19T09:14:19;8.00;;;2.72;;
8819;SDS011;4446;50.876;4.736;2023-02-19T09:16:46;8.52;;;2.88;;
8819;SDS011;4446;50.876;4.736;2023-02-19T09:19:13;9.27;;;2.85;;
8819;SDS011;4446;50.876;4.736;2023-02-19T09:21:41;7.72;;;3.05;;
8819;SDS011;4446;50.876;4.736;2023-02-19T09:24:08;9.40;;;2.97;;
8819;SDS011;4446;50.876;4.736;2023-02-19T09:26:35;8.50;;;3.30;;
8819;SDS011;4446;50.876;4.736;2023-02-19T09:29:03;9.18;;;3.40;;
8819;SDS011;4446;50.876;4.736;2023-02-19T09:31:30;7.22;;;3.40;;
8819;SDS011;4446;50.876;4.736;2023-02-19T09:33:59;9.30;;;3.30;;
8819;SDS011;4446;50.876;4.736;2023-02-19T09:36:26;9.25;;;3.20;;
8819;SDS011;4446;50.876;4.736;2023-02-19T09:38:53;8.30;;;3.25;;
8819;SDS011;4446;50.876;4.736;2023-02-19T09:41:21;9.93;;;3.17;;
8819;SDS011;4446;50.876;4.736;2023-02-19T09:43:53;8.82;;;3.17;;
8819;SDS011;4446;50.876;4.736;2023-02-19T09:46:23;9.43;;;3.15;;
8819;SDS011;4446;50.876;4.736;2023-02-19T09:48:56;7.78;;;3.10;;
8819;SDS011;4446;50.876;4.736;2023-02-19T09:51:29;10.77;;;3.30;;
8819;SDS011;4446;50.876;4.736;2023-02-19T09:53:59;7.90;;;3.25;;
8819;SDS011;4446;50.876;4.736;2023-02-19T09:56:28;9.10;;;2.92;;
8819;SDS011;4446;50.876;4.736;2023-02-19T09:58:55;9.70;;;3.22;;
8819;SDS011;4446;50.876;4.736;2023-02-19T10:01:27;9.30;;;3.30;;
8819;SDS011;4446;50.876;4.736;2023-02-19T10:03:57;8.73;;;3.20;;
8819;SDS011;4446;50.876;4.736;2023-02-19T10:06:25;6.22;;;3.33;;
8819;SDS011;4446;50.876;4.736;2023-02-19T10:08:54;9.65;;;3.60;;
8819;SDS011;4446;50.876;4.736;2023-02-19T10:11:37;6.78;;;3.40;;
8819;SDS011;4446;50.876;4.736;2023-02-19T10:14:05;8.27;;;3.15;;
8819;SDS011;4446;50.876;4.736;2023-02-19T10:16:39;8.23;;;3.42;;
8819;SDS011;4446;50.876;4.736;2023-02-19T10:19:10;8.43;;;3.50;;
8819;SDS011;4446;50.876;4.736;2023-02-19T10:21:38;10.27;;;3.30;;
8819;SDS011;4446;50.876;4.736;2023-02-19T10:24:06;10.80;;;3.50;;
8819;SDS011;4446;50.876;4.736;2023-02-19T10:26:38;13.70;;;3.53;;
8819;SDS011;4446;50.876;4.736;2023-02-19T10:29:05;6.80;;;3.03;;
8819;SDS011;4446;50.876;4.736;2023-02-19T10:31:32;9.25;;;3.13;;
8819;SDS011;4446;50.876;4.736;2023-02-19T10:34:01;7.60;;;3.35;;
8819;SDS011;4446;50.876;4.736;2023-02-19T10:36:30;10.32;;;3.03;;
8819;SDS011;4446;50.876;4.736;2023-02-19T10:38:59;7.20;;;2.92;;
8819;SDS011;4446;50.876;4.736;2023-02-19T10:41:28;10.00;;;3.50;;
8819;SDS011;4446;50.876;4.736;2023-02-19T10:43:59;9.18;;;3.10;;
8819;SDS011;4446;50.876;4.736;2023-02-19T10:46:30;9.30;;;3.50;;
8819;SDS011;4446;50.876;4.736;2023-02-19T10:49:01;10.18;;;4.00;;
8819;SDS011;4446;50.876;4.736;2023-02-19T10:51:30;9.15;;;3.60;;
8819;SDS011;4446;50.876;4.736;2023-02-19T10:54:03;10.50;;;3.67;;
8819;SDS011;4446;50.876;4.736;2023-02-19T10:56:31;8.27;;;3.97;;
8819;SDS011;4446;50.876;4.736;2023-02-19T10:59:12;11.48;;;4.40;;
8819;SDS011;4446;50.876;4.736;2023-02-19T11:01:51;10.13;;;4.38;;
8819;SDS011;4446;50.876;4.736;2023-02-19T11:04:21;7.78;;;4.22;;
8819;SDS011;4446;50.876;4.736;2023-02-19T11:06:48;6.13;;;4.00;;
8819;SDS011;4446;50.876;4.736;2023-02-19T11:09:22;8.88;;;3.78;;
8819;SDS011;4446;50.876;4.736;2023-02-19T11:11:53;8.43;;;3.92;;
8819;SDS011;4446;50.876;4.736;2023-02-19T11:14:21;5.93;;;3.53;;
8819;SDS011;4446;50.876;4.736;2023-02-19T11:16:50;8.35;;;3.72;;
8819;SDS011;4446;50.876;4.736;2023-02-19T11:22:18;9.48;;;3.72;;
8819;SDS011;4446;50.876;4.736;2023-02-19T11:24:53;11.20;;;3.85;;
8819;SDS011;4446;50.876;4.736;2023-02-19T11:27:21;8.98;;;3.83;;
8819;SDS011;4446;50.876;4.736;2023-02-19T11:29:49;8.48;;;3.60;;
8819;SDS011;4446;50.876;4.736;2023-02-19T11:32:23;6.45;;;3.28;;
8819;SDS011;4446;50.876;4.736;2023-02-19T11:37:54;7.25;;;4.65;;
8819;SDS011;4446;50.876;4.736;2023-02-19T11:40:23;10.98;;;4.63;;
8819;SDS011;4446;50.876;4.736;2023-02-19T11:43:01;9.93;;;4.78;;
8819;SDS011;4446;50.876;4.736;2023-02-19T11:45:34;10.15;;;4.40;;
8819;SDS011;4446;50.876;4.736;2023-02-19T11:51:16;8.80;;;4.30;;
8819;SDS011;4446;50.876;4.736;2023-02-19T11:53:51;6.55;;;4.10;;
8819;SDS011;4446;50.876;4.736;2023-02-19T11:56:27;8.00;;;3.90;;
8819;SDS011;4446;50.876;4.736;2023-02-19T11:59:00;7.07;;;3.58;;
8819;SDS011;4446;50.876;4.736;2023-02-19T12:07:33;5.15;;;3.35;;
8819;SDS011;4446;50.876;4.736;2023-02-19T12:10:24;5.03;;;3.33;;
8819;SDS011;4446;50.876;4.736;2023-02-19T12:13:00;7.15;;;3.60;;
8819;SDS011;4446;50.876;4.736;2023-02-19T12:18:33;12.30;;;3.63;;
8819;SDS011;4446;50.876;4.736;2023-02-19T12:21:28;7.70;;;3.30;;
8819;SDS011;4446;50.876;4.736;2023-02-19T12:24:20;8.63;;;3.53;;
8819;SDS011;4446;50.876;4.736;2023-02-19T12:27:04;5.40;;;3.22;;
8819;SDS011;4446;50.876;4.736;2023-02-19T12:32:46;5.22;;;3.50;;
8819;SDS011;4446;50.876;4.736;2023-02-19T12:35:30;8.80;;;3.50;;
8819;SDS011;4446;50.876;4.736;2023-02-19T12:38:08;9.07;;;3.55;;
8819;SDS011;4446;50.876;4.736;2023-02-19T12:40:48;8.70;;;3.50;;
8819;SDS011;4446;50.876;4.736;2023-02-19T12:43:24;8.25;;;3.30;;
8819;SDS011;4446;50.876;4.736;2023-02-19T12:45:51;4.68;;;3.17;;
8819;SDS011;4446;50.876;4.736;2023-02-19T12:48:24;6.95;;;3.63;;
8819;SDS011;4446;50.876;4.736;2023-02-19T12:50:56;4.38;;;2.85;;
8819;SDS011;4446;50.876;4.736;2023-02-19T12:53:29;5.88;;;3.03;;
8819;SDS011;4446;50.876;4.736;2023-02-19T12:56:03;8.07;;;3.08;;
8819;SDS011;4446;50.876;4.736;2023-02-19T12:58:36;6.00;;;3.42;;
8819;SDS011;4446;50.876;4.736;2023-02-19T13:01:05;6.80;;;3.33;;
8819;SDS011;4446;50.876;4.736;2023-02-19T13:03:40;9.82;;;3.75;;
8819;SDS011;4446;50.876;4.736;2023-02-19T13:06:17;7.15;;;3.60;;
8819;SDS011;4446;50.876;4.736;2023-02-19T13:08:53;7.40;;;3.58;;
8819;SDS011;4446;50.876;4.736;2023-02-19T13:11:27;9.93;;;4.15;;
8819;SDS011;4446;50.876;4.736;2023-02-19T13:13:59;7.20;;;4.00;;
8819;SDS011;4446;50.876;4.736;2023-02-19T13:16:32;9.85;;;5.25;;
8819;SDS011;4446;50.876;4.736;2023-02-19T13:19:04;8.93;;;5.30;;
8819;SDS011;4446;50.876;4.736;2023-02-19T13:21:32;8.65;;;4.70;;
8819;SDS011;4446;50.876;4.736;2023-02-19T13:24:20;8.70;;;4.75;;
8819;SDS011;4446;50.876;4.736;2023-02-19T13:26:56;8.45;;;4.70;;
8819;SDS011;4446;50.876;4.736;2023-02-19T13:29:39;7.28;;;4.35;;
8819;SDS011;4446;50.876;4.736;2023-02-19T13:35:19;6.00;;;3.42;;
8819;SDS011;4446;50.876;4.736;2023-02-19T13:37:51;6.43;;;3.40;;
8819;SDS011;4446;50.876;4.736;2023-02-19T13:40:21;5.13;;;3.20;;
8819;SDS011;4446;50.876;4.736;2023-02-19T13:42:57;5.72;;;3.42;;
8819;SDS011;4446;50.876;4.736;2023-02-19T13:45:32;7.38;;;3.38;;
8819;SDS011;4446;50.876;4.736;2023-02-19T13:48:12;6.43;;;3.03;;
8819;SDS011;4446;50.876;4.736;2023-02-19T13:50:41;6.78;;;2.80;;
8819;SDS011;4446;50.876;4.736;2023-02-19T14:02:07;5.85;;;3.20;;
8819;SDS011;4446;50.876;4.736;2023-02-19T14:04:49;6.88;;;3.38;;
8819;SDS011;4446;50.876;4.736;2023-02-19T14:16:31;5.25;;;3.42;;
8819;SDS011;4446;50.876;4.736;2023-02-19T14:19:13;5.38;;;3.47;;
8819;SDS011;4446;50.876;4.736;2023-02-19T14:21:41;5.93;;;3.70;;
8819;SDS011;4446;50.876;4.736;2023-02-19T14:24:09;7.18;;;3.67;;
8819;SDS011;4446;50.876;4.736;2023-02-19T14:26:38;7.03;;;3.88;;
8819;SDS011;4446;50.876;4.736;2023-02-19T14:29:06;8.57;;;3.97;;
8819;SDS011;4446;50.876;4.736;2023-02-19T14:31:37;6.25;;;4.00;;
8819;SDS011;4446;50.876;4.736;2023-02-19T14:34:05;4.95;;;3.70;;
8819;SDS011;4446;50.876;4.736;2023-02-19T14:36:42;6.45;;;3.72;;
8819;SDS011;4446;50.876;4.736;2023-02-19T14:39:14;5.78;;;3.40;;
8819;SDS011;4446;50.876;4.736;2023-02-19T14:41:44;4.95;;;3.33;;
8819;SDS011;4446;50.876;4.736;2023-02-19T14:44:15;6.40;;;3.78;;
8819;SDS011;4446;50.876;4.736;2023-02-19T14:46:47;4.38;;;3.28;;
8819;SDS011;4446;50.876;4.736;2023-02-19T14:49:23;5.95;;;4.05;;
8819;SDS011;4446;50.876;4.736;2023-02-19T14:51:55;4.30;;;3.53;;
8819;SDS011;4446;50.876;4.736;2023-02-19T14:54:36;4.68;;;3.70;;
8819;SDS011;4446;50.876;4.736;2023-02-19T14:57:10;5.25;;;3.13;;
8819;SDS011;4446;50.876;4.736;2023-02-19T14:59:40;5.95;;;3.47;;
8819;SDS011;4446;50.876;4.736;2023-02-19T15:02:20;4.50;;;3.25;;
8819;SDS011;4446;50.876;4.736;2023-02-19T15:04:50;6.13;;;3.60;;
8819;SDS011;4446;50.876;4.736;2023-02-19T15:07:18;5.55;;;3.72;;
8819;SDS011;4446;50.876;4.736;2023-02-19T15:09:47;7.22;;;4.60;;
8819;SDS011;4446;50.876;4.736;2023-02-19T15:12:16;6.70;;;4.10;;
8819;SDS011;4446;50.876;4.736;2023-02-19T15:14:47;6.10;;;4.43;;
8819;SDS011;4446;50.876;4.736;2023-02-19T15:17:18;9.23;;;5.22;;
8819;SDS011;4446;50.876;4.736;2023-02-19T15:19:50;8.07;;;4.63;;
8819;SDS011;4446;50.876;4.736;2023-02-19T15:22:18;5.80;;;4.50;;
8819;SDS011;4446;50.876;4.736;2023-02-19T15:24:48;6.53;;;4.72;;
8819;SDS011;4446;50.876;4.736;2023-02-19T15:27:16;7.63;;;4.80;;
8819;SDS011;4446;50.876;4.736;2023-02-19T15:29:45;6.13;;;4.45;;
8819;SDS011;4446;50.876;4.736;2023-02-19T15:32:14;6.05;;;4.18;;
8819;SDS011;4446;50.876;4.736;2023-02-19T15:34:49;6.15;;;4.32;;
8819;SDS011;4446;50.876;4.736;2023-02-19T15:37:19;5.95;;;3.97;;
8819;SDS011;4446;50.876;4.736;2023-02-19T15:39:47;4.93;;;3.42;;
8819;SDS011;4446;50.876;4.736;2023-02-19T15:42:17;4.45;;;2.83;;
8819;SDS011;4446;50.876;4.736;2023-02-19T15:44:49;3.50;;;2.90;;
8819;SDS011;4446;50.876;4.736;2023-02-19T15:47:21;3.53;;;2.70;;
8819;SDS011;4446;50.876;4.736;2023-02-19T15:49:53;3.00;;;2.70;;
8819;SDS011;4446;50.876;4.736;2023-02-19T15:52:25;2.90;;;2.50;;
8819;SDS011;4446;50.876;4.736;2023-02-19T15:55:01;4.65;;;2.75;;
8819;SDS011;4446;50.876;4.736;2023-02-19T15:57:35;4.68;;;2.72;;
8819;SDS011;4446;50.876;4.736;2023-02-19T16:00:11;3.25;;;2.25;;
8819;SDS011;4446;50.876;4.736;2023-02-19T16:02:42;5.88;;;4.10;;
8819;SDS011;4446;50.876;4.736;2023-02-19T16:05:12;3.90;;;2.72;;
8819;SDS011;4446;50.876;4.736;2023-02-19T16:07:42;3.42;;;2.85;;
8819;SDS011;4446;50.876;4.736;2023-02-19T16:10:18;4.38;;;2.33;;
8819;SDS011;4446;50.876;4.736;2023-02-19T16:12:54;3.38;;;2.30;;
8819;SDS011;4446;50.876;4.736;2023-02-19T16:15:22;2.70;;;2.38;;
8819;SDS011;4446;50.876;4.736;2023-02-19T16:17:49;3.20;;;2.50;;